sensor_id;sensor_type;location;lat;lon;timestamp;temperature;humidity
52024;DHT22;38038;45.922;13.604;2022-07-21T00:00:40;24.40;75.10
52024;DHT22;38038;45.922;13.604;2022-07-21T00:03:06;24.30;75.30
52024;DHT22;38038;45.922;13.604;2022-07-21T00:05:32;24.30;74.70
52024;DHT22;38038;45.922;13.604;2022-07-21T00:07:57;24.20;74.90
52024;DHT22;38038;45.922;13.604;2022-07-21T00:10:25;24.20;75.30
52024;DHT22;38038;45.922;13.604;2022-07-21T00:12:52;24.10;75.60
52024;DHT22;38038;45.922;13.604;2022-07-21T00:15:22;24.00;75.60
52024;DHT22;38038;45.922;13.604;2022-07-21T00:17:48;24.10;75.50
52024;DHT22;38038;45.922;13.604;2022-07-21T00:20:14;24.20;75.80
52024;DHT22;38038;45.922;13.604;2022-07-21T00:22:40;24.00;75.90
52024;DHT22;38038;45.922;13.604;2022-07-21T00:25:07;23.90;76.00
52024;DHT22;38038;45.922;13.604;2022-07-21T00:27:33;23.80;76.60
52024;DHT22;38038;45.922;13.604;2022-07-21T00:29:59;23.80;76.60
52024;DHT22;38038;45.922;13.604;2022-07-21T00:32:24;23.70;76.60
52024;DHT22;38038;45.922;13.604;2022-07-21T00:34:50;23.70;76.80
52024;DHT22;38038;45.922;13.604;2022-07-21T00:37:16;23.70;76.90
52024;DHT22;38038;45.922;13.604;2022-07-21T00:39:41;23.70;76.60
52024;DHT22;38038;45.922;13.604;2022-07-21T00:42:07;23.60;77.40
52024;DHT22;38038;45.922;13.604;2022-07-21T00:44:33;23.40;77.80
52024;DHT22;38038;45.922;13.604;2022-07-21T00:46:59;23.50;76.90
52024;DHT22;38038;45.922;13.604;2022-07-21T00:49:25;23.40;76.80
52024;DHT22;38038;45.922;13.604;2022-07-21T00:51:51;23.30;76.70
52024;DHT22;38038;45.922;13.604;2022-07-21T00:54:18;23.10;77.00
52024;DHT22;38038;45.922;13.604;2022-07-21T00:56:45;23.00;77.50
52024;DHT22;38038;45.922;13.604;2022-07-21T00:59:11;23.00;77.60
52024;DHT22;38038;45.922;13.604;2022-07-21T01:01:38;23.00;78.00
52024;DHT22;38038;45.922;13.604;2022-07-21T01:04:04;22.80;78.40
52024;DHT22;38038;45.922;13.604;2022-07-21T01:06:29;22.80;78.70
52024;DHT22;38038;45.922;13.604;2022-07-21T01:08:56;22.70;79.10
52024;DHT22;38038;45.922;13.604;2022-07-21T01:11:24;22.80;78.90
52024;DHT22;38038;45.922;13.604;2022-07-21T01:13:50;22.80;79.00
52024;DHT22;38038;45.922;13.604;2022-07-21T01:16:16;22.60;79.40
52024;DHT22;38038;45.922;13.604;2022-07-21T01:18:42;22.40;79.80
52024;DHT22;38038;45.922;13.604;2022-07-21T01:23:53;22.20;80.60
52024;DHT22;38038;45.922;13.604;2022-07-21T01:26:19;22.30;80.80
52024;DHT22;38038;45.922;13.604;2022-07-21T01:28:44;22.40;80.70
52024;DHT22;38038;45.922;13.604;2022-07-21T01:31:11;22.20;80.30
52024;DHT22;38038;45.922;13.604;2022-07-21T01:33:37;22.20;80.30
52024;DHT22;38038;45.922;13.604;2022-07-21T01:36:03;22.30;80.20
52024;DHT22;38038;45.922;13.604;2022-07-21T01:38:28;22.30;80.00
52024;DHT22;38038;45.922;13.604;2022-07-21T01:41:17;22.40;79.90
52024;DHT22;38038;45.922;13.604;2022-07-21T01:43:59;22.30;79.90
52024;DHT22;38038;45.922;13.604;2022-07-21T01:46:28;22.30;80.00
52024;DHT22;38038;45.922;13.604;2022-07-21T01:48:54;22.30;80.00
52024;DHT22;38038;45.922;13.604;2022-07-21T01:51:20;22.40;79.80
52024;DHT22;38038;45.922;13.604;2022-07-21T01:53:45;22.30;80.60
52024;DHT22;38038;45.922;13.604;2022-07-21T01:56:11;22.20;80.00
52024;DHT22;38038;45.922;13.604;2022-07-21T01:58:37;22.20;79.60
52024;DHT22;38038;45.922;13.604;2022-07-21T02:01:03;22.00;79.90
52024;DHT22;38038;45.922;13.604;2022-07-21T02:03:29;22.10;79.10
52024;DHT22;38038;45.922;13.604;2022-07-21T02:06:01;22.20;78.50
52024;DHT22;38038;45.922;13.604;2022-07-21T02:08:26;22.30;78.60
52024;DHT22;38038;45.922;13.604;2022-07-21T02:10:52;22.40;78.50
52024;DHT22;38038;45.922;13.604;2022-07-21T02:13:18;22.40;78.40
52024;DHT22;38038;45.922;13.604;2022-07-21T02:15:43;22.40;78.40
52024;DHT22;38038;45.922;13.604;2022-07-21T02:18:09;22.40;78.50
52024;DHT22;38038;45.922;13.604;2022-07-21T02:20:35;22.40;78.20
52024;DHT22;38038;45.922;13.604;2022-07-21T02:23:00;22.50;78.40
52024;DHT22;38038;45.922;13.604;2022-07-21T02:25:26;22.50;78.50
52024;DHT22;38038;45.922;13.604;2022-07-21T02:27:52;22.40;78.40
52024;DHT22;38038;45.922;13.604;2022-07-21T02:30:18;22.40;78.60
52024;DHT22;38038;45.922;13.604;2022-07-21T02:32:44;22.30;78.80
52024;DHT22;38038;45.922;13.604;2022-07-21T02:35:10;22.40;79.10
52024;DHT22;38038;45.922;13.604;2022-07-21T02:37:37;22.40;79.10
52024;DHT22;38038;45.922;13.604;2022-07-21T02:40:04;22.40;78.40
52024;DHT22;38038;45.922;13.604;2022-07-21T02:42:30;22.40;78.70
52024;DHT22;38038;45.922;13.604;2022-07-21T02:44:55;22.30;78.50
52024;DHT22;38038;45.922;13.604;2022-07-21T02:47:21;22.10;78.40
52024;DHT22;38038;45.922;13.604;2022-07-21T02:49:47;22.10;78.50
52024;DHT22;38038;45.922;13.604;2022-07-21T02:52:14;22.00;78.60
52024;DHT22;38038;45.922;13.604;2022-07-21T02:54:39;21.90;78.90
52024;DHT22;38038;45.922;13.604;2022-07-21T02:57:05;21.90;79.00
52024;DHT22;38038;45.922;13.604;2022-07-21T02:59:31;21.90;79.00
52024;DHT22;38038;45.922;13.604;2022-07-21T03:01:57;21.80;79.40
52024;DHT22;38038;45.922;13.604;2022-07-21T03:04:22;21.70;79.70
52024;DHT22;38038;45.922;13.604;2022-07-21T03:06:48;21.60;79.90
52024;DHT22;38038;45.922;13.604;2022-07-21T03:09:14;21.70;79.70
52024;DHT22;38038;45.922;13.604;2022-07-21T03:11:39;21.90;79.40
52024;DHT22;38038;45.922;13.604;2022-07-21T03:14:05;22.00;79.20
52024;DHT22;38038;45.922;13.604;2022-07-21T03:16:31;22.00;79.50
52024;DHT22;38038;45.922;13.604;2022-07-21T03:18:57;22.00;79.40
52024;DHT22;38038;45.922;13.604;2022-07-21T03:21:23;21.90;79.60
52024;DHT22;38038;45.922;13.604;2022-07-21T03:23:48;21.90;79.40
52024;DHT22;38038;45.922;13.604;2022-07-21T03:26:15;22.10;79.20
52024;DHT22;38038;45.922;13.604;2022-07-21T03:28:42;22.00;79.10
52024;DHT22;38038;45.922;13.604;2022-07-21T03:31:08;22.10;79.20
52024;DHT22;38038;45.922;13.604;2022-07-21T03:33:34;22.10;79.20
52024;DHT22;38038;45.922;13.604;2022-07-21T03:36:00;22.10;79.70
52024;DHT22;38038;45.922;13.604;2022-07-21T03:38:27;22.10;79.10
52024;DHT22;38038;45.922;13.604;2022-07-21T03:40:52;22.20;79.10
52024;DHT22;38038;45.922;13.604;2022-07-21T03:43:19;22.20;79.30
52024;DHT22;38038;45.922;13.604;2022-07-21T03:45:45;22.10;79.30
52024;DHT22;38038;45.922;13.604;2022-07-21T03:48:11;22.10;79.70
52024;DHT22;38038;45.922;13.604;2022-07-21T03:50:40;22.00;80.00
52024;DHT22;38038;45.922;13.604;2022-07-21T03:53:08;22.00;80.30
52024;DHT22;38038;45.922;13.604;2022-07-21T03:55:34;22.00;80.50
52024;DHT22;38038;45.922;13.604;2022-07-21T03:58:03;22.00;80.30
52024;DHT22;38038;45.922;13.604;2022-07-21T04:00:32;21.90;80.60
52024;DHT22;38038;45.922;13.604;2022-07-21T04:03:00;22.10;80.50
52024;DHT22;38038;45.922;13.604;2022-07-21T04:05:26;22.00;80.40
52024;DHT22;38038;45.922;13.604;2022-07-21T04:07:53;21.70;81.20
52024;DHT22;38038;45.922;13.604;2022-07-21T04:10:22;21.60;81.80
52024;DHT22;38038;45.922;13.604;2022-07-21T04:12:50;21.70;81.60
52024;DHT22;38038;45.922;13.604;2022-07-21T04:15:16;21.90;81.00
52024;DHT22;38038;45.922;13.604;2022-07-21T04:17:42;21.90;80.60
52024;DHT22;38038;45.922;13.604;2022-07-21T04:20:09;21.80;80.90
52024;DHT22;38038;45.922;13.604;2022-07-21T04:22:36;21.70;81.20
52024;DHT22;38038;45.922;13.604;2022-07-21T04:25:03;21.70;81.60
52024;DHT22;38038;45.922;13.604;2022-07-21T04:27:29;21.90;81.30
52024;DHT22;38038;45.922;13.604;2022-07-21T04:29:55;22.30;80.20
52024;DHT22;38038;45.922;13.604;2022-07-21T04:32:21;22.70;79.00
52024;DHT22;38038;45.922;13.604;2022-07-21T04:34:47;23.10;77.80
52024;DHT22;38038;45.922;13.604;2022-07-21T04:37:13;23.40;77.10
52024;DHT22;38038;45.922;13.604;2022-07-21T04:39:39;23.60;76.70
52024;DHT22;38038;45.922;13.604;2022-07-21T04:42:05;23.80;76.30
52024;DHT22;38038;45.922;13.604;2022-07-21T04:44:30;23.70;76.80
52024;DHT22;38038;45.922;13.604;2022-07-21T04:46:57;24.00;76.40
52024;DHT22;38038;45.922;13.604;2022-07-21T04:49:22;24.40;75.50
52024;DHT22;38038;45.922;13.604;2022-07-21T04:51:48;24.50;75.40
52024;DHT22;38038;45.922;13.604;2022-07-21T04:54:14;25.30;73.40
52024;DHT22;38038;45.922;13.604;2022-07-21T04:56:41;25.80;72.10
52024;DHT22;38038;45.922;13.604;2022-07-21T04:59:07;25.20;73.20
52024;DHT22;38038;45.922;13.604;2022-07-21T05:01:33;25.00;73.70
52024;DHT22;38038;45.922;13.604;2022-07-21T05:03:59;25.40;72.90
52024;DHT22;38038;45.922;13.604;2022-07-21T05:06:25;25.40;73.30
52024;DHT22;38038;45.922;13.604;2022-07-21T05:08:50;25.30;73.60
52024;DHT22;38038;45.922;13.604;2022-07-21T05:11:16;25.20;73.70
52024;DHT22;38038;45.922;13.604;2022-07-21T05:13:42;25.30;73.20
52024;DHT22;38038;45.922;13.604;2022-07-21T05:16:08;25.50;72.70
52024;DHT22;38038;45.922;13.604;2022-07-21T05:18:33;25.50;72.80
52024;DHT22;38038;45.922;13.604;2022-07-21T05:20:59;26.00;71.70
52024;DHT22;38038;45.922;13.604;2022-07-21T05:23:25;26.50;70.80
52024;DHT22;38038;45.922;13.604;2022-07-21T05:25:50;26.90;70.10
52024;DHT22;38038;45.922;13.604;2022-07-21T05:28:16;26.90;70.00
52024;DHT22;38038;45.922;13.604;2022-07-21T05:30:42;26.90;69.70
52024;DHT22;38038;45.922;13.604;2022-07-21T05:33:08;27.00;69.50
52024;DHT22;38038;45.922;13.604;2022-07-21T05:35:33;27.40;69.00
52024;DHT22;38038;45.922;13.604;2022-07-21T05:37:59;27.40;68.50
52024;DHT22;38038;45.922;13.604;2022-07-21T05:40:25;27.70;67.80
52024;DHT22;38038;45.922;13.604;2022-07-21T05:42:51;27.70;67.90
52024;DHT22;38038;45.922;13.604;2022-07-21T05:45:17;27.80;67.80
52024;DHT22;38038;45.922;13.604;2022-07-21T05:47:42;27.60;68.40
52024;DHT22;38038;45.922;13.604;2022-07-21T05:50:09;27.90;67.50
52024;DHT22;38038;45.922;13.604;2022-07-21T05:52:34;28.00;67.70
52024;DHT22;38038;45.922;13.604;2022-07-21T05:55:00;28.50;67.00
52024;DHT22;38038;45.922;13.604;2022-07-21T05:57:26;28.80;66.20
52024;DHT22;38038;45.922;13.604;2022-07-21T05:59:52;29.40;65.60
52024;DHT22;38038;45.922;13.604;2022-07-21T06:02:18;29.70;64.80
52024;DHT22;38038;45.922;13.604;2022-07-21T06:04:43;29.80;65.30
52024;DHT22;38038;45.922;13.604;2022-07-21T06:07:09;30.10;64.80
52024;DHT22;38038;45.922;13.604;2022-07-21T06:09:35;30.00;65.50
52024;DHT22;38038;45.922;13.604;2022-07-21T06:12:01;30.00;65.20
52024;DHT22;38038;45.922;13.604;2022-07-21T06:14:27;30.60;64.00
52024;DHT22;38038;45.922;13.604;2022-07-21T06:16:52;31.00;63.90
52024;DHT22;38038;45.922;13.604;2022-07-21T06:19:18;31.60;63.30
52024;DHT22;38038;45.922;13.604;2022-07-21T06:21:44;32.10;62.20
52024;DHT22;38038;45.922;13.604;2022-07-21T06:24:10;32.40;61.90
52024;DHT22;38038;45.922;13.604;2022-07-21T06:26:36;32.60;61.30
52024;DHT22;38038;45.922;13.604;2022-07-21T06:29:02;32.30;61.80
52024;DHT22;38038;45.922;13.604;2022-07-21T06:31:28;32.30;61.50
52024;DHT22;38038;45.922;13.604;2022-07-21T06:33:53;32.60;61.30
52024;DHT22;38038;45.922;13.604;2022-07-21T06:36:19;32.30;60.60
52024;DHT22;38038;45.922;13.604;2022-07-21T06:38:45;32.30;61.00
52024;DHT22;38038;45.922;13.604;2022-07-21T06:41:11;32.60;60.40
52024;DHT22;38038;45.922;13.604;2022-07-21T06:43:37;32.90;60.10
52024;DHT22;38038;45.922;13.604;2022-07-21T06:46:03;33.10;59.50
52024;DHT22;38038;45.922;13.604;2022-07-21T06:48:29;32.70;59.90
52024;DHT22;38038;45.922;13.604;2022-07-21T06:50:55;32.10;60.70
52024;DHT22;38038;45.922;13.604;2022-07-21T06:53:22;31.40;62.20
52024;DHT22;38038;45.922;13.604;2022-07-21T06:55:48;31.10;62.70
52024;DHT22;38038;45.922;13.604;2022-07-21T06:58:19;30.90;63.70
52024;DHT22;38038;45.922;13.604;2022-07-21T07:00:48;30.90;63.10
52024;DHT22;38038;45.922;13.604;2022-07-21T07:03:15;30.70;63.40
52024;DHT22;38038;45.922;13.604;2022-07-21T07:05:42;30.70;63.40
52024;DHT22;38038;45.922;13.604;2022-07-21T07:08:08;30.60;63.80
52024;DHT22;38038;45.922;13.604;2022-07-21T07:10:34;30.20;63.40
52024;DHT22;38038;45.922;13.604;2022-07-21T07:13:00;30.10;63.60
52024;DHT22;38038;45.922;13.604;2022-07-21T07:15:27;30.30;63.90
52024;DHT22;38038;45.922;13.604;2022-07-21T07:17:53;30.50;62.50
52024;DHT22;38038;45.922;13.604;2022-07-21T07:20:19;30.70;62.20
52024;DHT22;38038;45.922;13.604;2022-07-21T07:22:44;30.90;62.30
52024;DHT22;38038;45.922;13.604;2022-07-21T07:25:10;30.80;61.90
52024;DHT22;38038;45.922;13.604;2022-07-21T07:27:36;31.00;62.00
52024;DHT22;38038;45.922;13.604;2022-07-21T07:30:03;31.10;61.10
52024;DHT22;38038;45.922;13.604;2022-07-21T07:32:29;31.20;61.40
52024;DHT22;38038;45.922;13.604;2022-07-21T07:34:54;31.20;61.90
52024;DHT22;38038;45.922;13.604;2022-07-21T07:37:20;31.20;61.80
52024;DHT22;38038;45.922;13.604;2022-07-21T07:39:46;31.00;62.00
52024;DHT22;38038;45.922;13.604;2022-07-21T07:42:12;30.90;62.60
52024;DHT22;38038;45.922;13.604;2022-07-21T07:44:38;30.80;63.10
52024;DHT22;38038;45.922;13.604;2022-07-21T07:47:03;31.00;63.20
52024;DHT22;38038;45.922;13.604;2022-07-21T07:49:30;31.20;63.10
52024;DHT22;38038;45.922;13.604;2022-07-21T07:51:56;31.20;62.50
52024;DHT22;38038;45.922;13.604;2022-07-21T07:54:22;31.30;62.00
52024;DHT22;38038;45.922;13.604;2022-07-21T07:56:48;31.20;61.50
52024;DHT22;38038;45.922;13.604;2022-07-21T07:59:14;31.10;61.70
52024;DHT22;38038;45.922;13.604;2022-07-21T08:01:40;31.30;61.30
52024;DHT22;38038;45.922;13.604;2022-07-21T08:04:05;31.40;61.20
52024;DHT22;38038;45.922;13.604;2022-07-21T08:06:31;31.50;60.90
52024;DHT22;38038;45.922;13.604;2022-07-21T08:08:57;31.70;61.10
52024;DHT22;38038;45.922;13.604;2022-07-21T08:11:24;31.90;60.90
52024;DHT22;38038;45.922;13.604;2022-07-21T08:13:49;32.00;60.80
52024;DHT22;38038;45.922;13.604;2022-07-21T08:16:15;32.00;59.70
52024;DHT22;38038;45.922;13.604;2022-07-21T08:18:43;32.00;59.40
52024;DHT22;38038;45.922;13.604;2022-07-21T08:21:09;31.90;59.80
52024;DHT22;38038;45.922;13.604;2022-07-21T08:23:36;32.00;60.80
52024;DHT22;38038;45.922;13.604;2022-07-21T08:26:02;32.00;60.60
52024;DHT22;38038;45.922;13.604;2022-07-21T08:28:27;31.80;59.80
52024;DHT22;38038;45.922;13.604;2022-07-21T08:30:53;32.10;59.20
52024;DHT22;38038;45.922;13.604;2022-07-21T08:33:19;32.30;59.00
52024;DHT22;38038;45.922;13.604;2022-07-21T08:35:45;32.30;58.50
52024;DHT22;38038;45.922;13.604;2022-07-21T08:38:11;32.60;58.70
52024;DHT22;38038;45.922;13.604;2022-07-21T08:40:40;32.50;58.20
52024;DHT22;38038;45.922;13.604;2022-07-21T08:43:06;32.60;57.30
52024;DHT22;38038;45.922;13.604;2022-07-21T08:45:34;32.80;57.10
52024;DHT22;38038;45.922;13.604;2022-07-21T08:48:00;32.90;56.60
52024;DHT22;38038;45.922;13.604;2022-07-21T08:50:30;33.00;56.90
52024;DHT22;38038;45.922;13.604;2022-07-21T08:52:56;33.00;57.10
52024;DHT22;38038;45.922;13.604;2022-07-21T08:55:23;33.20;56.80
52024;DHT22;38038;45.922;13.604;2022-07-21T08:57:49;33.30;56.80
52024;DHT22;38038;45.922;13.604;2022-07-21T09:00:15;33.30;57.50
52024;DHT22;38038;45.922;13.604;2022-07-21T09:02:41;33.50;57.50
52024;DHT22;38038;45.922;13.604;2022-07-21T09:05:09;33.60;57.00
52024;DHT22;38038;45.922;13.604;2022-07-21T09:07:48;33.70;56.10
52024;DHT22;38038;45.922;13.604;2022-07-21T09:10:15;33.80;55.90
52024;DHT22;38038;45.922;13.604;2022-07-21T09:12:55;33.90;56.10
52024;DHT22;38038;45.922;13.604;2022-07-21T09:15:23;33.90;55.50
52024;DHT22;38038;45.922;13.604;2022-07-21T09:18:13;33.90;55.60
52024;DHT22;38038;45.922;13.604;2022-07-21T09:20:50;34.20;55.70
52024;DHT22;38038;45.922;13.604;2022-07-21T09:23:18;34.40;54.50
52024;DHT22;38038;45.922;13.604;2022-07-21T09:25:45;34.60;54.40
52024;DHT22;38038;45.922;13.604;2022-07-21T09:36:11;34.80;54.30
52024;DHT22;38038;45.922;13.604;2022-07-21T09:39:00;34.70;54.60
52024;DHT22;38038;45.922;13.604;2022-07-21T09:41:26;34.60;55.40
52024;DHT22;38038;45.922;13.604;2022-07-21T09:43:57;34.50;55.00
52024;DHT22;38038;45.922;13.604;2022-07-21T09:46:28;34.80;54.00
52024;DHT22;38038;45.922;13.604;2022-07-21T09:48:55;35.00;54.30
52024;DHT22;38038;45.922;13.604;2022-07-21T09:51:31;35.00;54.40
52024;DHT22;38038;45.922;13.604;2022-07-21T09:54:04;34.90;55.10
52024;DHT22;38038;45.922;13.604;2022-07-21T09:56:33;34.80;55.10
52024;DHT22;38038;45.922;13.604;2022-07-21T09:59:00;34.70;55.30
52024;DHT22;38038;45.922;13.604;2022-07-21T10:01:28;34.80;55.10
52024;DHT22;38038;45.922;13.604;2022-07-21T10:03:55;34.80;54.90
52024;DHT22;38038;45.922;13.604;2022-07-21T10:06:32;34.90;55.50
52024;DHT22;38038;45.922;13.604;2022-07-21T10:09:00;35.00;55.80
52024;DHT22;38038;45.922;13.604;2022-07-21T10:11:27;34.90;56.20
52024;DHT22;38038;45.922;13.604;2022-07-21T10:13:53;34.90;56.70
52024;DHT22;38038;45.922;13.604;2022-07-21T10:16:19;34.80;56.20
52024;DHT22;38038;45.922;13.604;2022-07-21T10:19:00;34.80;56.00
52024;DHT22;38038;45.922;13.604;2022-07-21T10:24:15;34.70;55.60
52024;DHT22;38038;45.922;13.604;2022-07-21T10:27:20;34.80;55.70
52024;DHT22;38038;45.922;13.604;2022-07-21T10:34:58;35.00;54.60
52024;DHT22;38038;45.922;13.604;2022-07-21T10:45:37;35.00;53.90
52024;DHT22;38038;45.922;13.604;2022-07-21T10:48:05;34.90;52.20
52024;DHT22;38038;45.922;13.604;2022-07-21T10:50:32;34.90;51.20
52024;DHT22;38038;45.922;13.604;2022-07-21T10:53:01;35.00;53.70
52024;DHT22;38038;45.922;13.604;2022-07-21T10:55:31;35.10;52.60
52024;DHT22;38038;45.922;13.604;2022-07-21T10:58:13;35.20;52.80
52024;DHT22;38038;45.922;13.604;2022-07-21T11:00:47;35.30;53.40
52024;DHT22;38038;45.922;13.604;2022-07-21T11:03:24;35.30;53.50
52024;DHT22;38038;45.922;13.604;2022-07-21T11:08:36;35.40;51.90
52024;DHT22;38038;45.922;13.604;2022-07-21T11:11:20;35.40;52.20
52024;DHT22;38038;45.922;13.604;2022-07-21T11:19:06;35.60;51.80
52024;DHT22;38038;45.922;13.604;2022-07-21T11:21:31;35.50;52.90
52024;DHT22;38038;45.922;13.604;2022-07-21T11:23:57;35.50;52.40
52024;DHT22;38038;45.922;13.604;2022-07-21T11:26:26;35.50;52.00
52024;DHT22;38038;45.922;13.604;2022-07-21T11:29:05;35.40;52.00
52024;DHT22;38038;45.922;13.604;2022-07-21T11:31:31;35.40;52.80
52024;DHT22;38038;45.922;13.604;2022-07-21T11:33:57;35.40;52.40
52024;DHT22;38038;45.922;13.604;2022-07-21T11:36:30;35.50;52.50
52024;DHT22;38038;45.922;13.604;2022-07-21T11:39:06;35.50;52.40
52024;DHT22;38038;45.922;13.604;2022-07-21T11:41:34;35.60;51.50
52024;DHT22;38038;45.922;13.604;2022-07-21T11:44:00;35.60;51.00
52024;DHT22;38038;45.922;13.604;2022-07-21T11:46:26;35.60;51.40
52024;DHT22;38038;45.922;13.604;2022-07-21T11:49:05;35.60;51.10
52024;DHT22;38038;45.922;13.604;2022-07-21T11:51:32;35.60;51.40
52024;DHT22;38038;45.922;13.604;2022-07-21T11:54:00;35.60;52.30
52024;DHT22;38038;45.922;13.604;2022-07-21T11:56:27;35.50;52.10
52024;DHT22;38038;45.922;13.604;2022-07-21T11:59:11;35.50;52.10
52024;DHT22;38038;45.922;13.604;2022-07-21T12:01:54;35.70;52.20
52024;DHT22;38038;45.922;13.604;2022-07-21T12:40:04;35.80;51.60
52024;DHT22;38038;45.922;13.604;2022-07-21T12:42:34;35.90;51.80
52024;DHT22;38038;45.922;13.604;2022-07-21T12:45:20;35.80;51.90
52024;DHT22;38038;45.922;13.604;2022-07-21T12:48:17;35.80;52.00
52024;DHT22;38038;45.922;13.604;2022-07-21T12:51:07;35.80;51.90
52024;DHT22;38038;45.922;13.604;2022-07-21T12:53:43;35.80;52.20
52024;DHT22;38038;45.922;13.604;2022-07-21T12:56:12;35.70;52.20
52024;DHT22;38038;45.922;13.604;2022-07-21T12:58:38;35.90;52.50
52024;DHT22;38038;45.922;13.604;2022-07-21T13:01:04;35.90;52.10
52024;DHT22;38038;45.922;13.604;2022-07-21T13:03:31;35.90;52.00
52024;DHT22;38038;45.922;13.604;2022-07-21T13:05:58;36.00;51.90
52024;DHT22;38038;45.922;13.604;2022-07-21T13:08:24;36.10;51.60
52024;DHT22;38038;45.922;13.604;2022-07-21T13:10:49;36.00;51.20
52024;DHT22;38038;45.922;13.604;2022-07-21T13:13:15;36.10;51.10
52024;DHT22;38038;45.922;13.604;2022-07-21T13:15:41;36.20;50.90
52024;DHT22;38038;45.922;13.604;2022-07-21T13:18:07;36.00;50.60
52024;DHT22;38038;45.922;13.604;2022-07-21T13:20:33;36.00;50.90
52024;DHT22;38038;45.922;13.604;2022-07-21T13:22:59;36.10;50.70
52024;DHT22;38038;45.922;13.604;2022-07-21T13:25:25;36.20;50.50
52024;DHT22;38038;45.922;13.604;2022-07-21T13:27:50;36.30;50.40
52024;DHT22;38038;45.922;13.604;2022-07-21T13:30:17;36.30;50.60
52024;DHT22;38038;45.922;13.604;2022-07-21T13:32:43;36.20;50.50
52024;DHT22;38038;45.922;13.604;2022-07-21T13:35:09;36.10;50.70
52024;DHT22;38038;45.922;13.604;2022-07-21T13:37:35;36.10;50.70
52024;DHT22;38038;45.922;13.604;2022-07-21T13:40:01;36.00;50.80
52024;DHT22;38038;45.922;13.604;2022-07-21T13:42:26;36.00;50.90
52024;DHT22;38038;45.922;13.604;2022-07-21T13:44:52;35.90;50.80
52024;DHT22;38038;45.922;13.604;2022-07-21T13:47:18;36.00;51.20
52024;DHT22;38038;45.922;13.604;2022-07-21T13:49:44;36.10;51.20
52024;DHT22;38038;45.922;13.604;2022-07-21T13:52:09;36.20;51.40
52024;DHT22;38038;45.922;13.604;2022-07-21T13:54:35;36.20;51.40
52024;DHT22;38038;45.922;13.604;2022-07-21T13:57:01;36.10;51.40
52024;DHT22;38038;45.922;13.604;2022-07-21T13:59:27;36.10;51.30
52024;DHT22;38038;45.922;13.604;2022-07-21T14:01:53;36.40;51.80
52024;DHT22;38038;45.922;13.604;2022-07-21T14:04:19;36.30;51.70
52024;DHT22;38038;45.922;13.604;2022-07-21T14:06:45;36.10;52.00
52024;DHT22;38038;45.922;13.604;2022-07-21T14:09:13;36.20;51.50
52024;DHT22;38038;45.922;13.604;2022-07-21T14:11:39;36.10;51.40
52024;DHT22;38038;45.922;13.604;2022-07-21T14:14:05;36.00;51.40
52024;DHT22;38038;45.922;13.604;2022-07-21T14:16:31;36.00;51.30
52024;DHT22;38038;45.922;13.604;2022-07-21T14:18:56;36.00;51.50
52024;DHT22;38038;45.922;13.604;2022-07-21T14:21:22;36.00;51.20
52024;DHT22;38038;45.922;13.604;2022-07-21T14:23:48;36.00;51.00
52024;DHT22;38038;45.922;13.604;2022-07-21T14:26:33;36.00;51.00
52024;DHT22;38038;45.922;13.604;2022-07-21T14:28:59;36.10;51.40
52024;DHT22;38038;45.922;13.604;2022-07-21T14:31:25;36.10;51.00
52024;DHT22;38038;45.922;13.604;2022-07-21T14:33:51;36.10;51.20
52024;DHT22;38038;45.922;13.604;2022-07-21T14:36:16;36.10;51.20
52024;DHT22;38038;45.922;13.604;2022-07-21T14:38:42;36.10;51.30
52024;DHT22;38038;45.922;13.604;2022-07-21T14:41:08;36.20;51.10
52024;DHT22;38038;45.922;13.604;2022-07-21T14:43:48;36.20;51.10
52024;DHT22;38038;45.922;13.604;2022-07-21T14:46:15;36.00;51.50
52024;DHT22;38038;45.922;13.604;2022-07-21T14:48:41;36.00;51.30
52024;DHT22;38038;45.922;13.604;2022-07-21T14:51:09;36.00;51.30
52024;DHT22;38038;45.922;13.604;2022-07-21T14:53:34;36.00;51.50
52024;DHT22;38038;45.922;13.604;2022-07-21T14:56:00;36.00;51.60
52024;DHT22;38038;45.922;13.604;2022-07-21T14:58:26;35.90;51.70
52024;DHT22;38038;45.922;13.604;2022-07-21T15:00:51;35.90;51.70
52024;DHT22;38038;45.922;13.604;2022-07-21T15:03:17;35.90;51.90
52024;DHT22;38038;45.922;13.604;2022-07-21T15:05:44;35.80;51.80
52024;DHT22;38038;45.922;13.604;2022-07-21T15:08:10;35.80;52.20
52024;DHT22;38038;45.922;13.604;2022-07-21T15:10:37;35.80;52.80
52024;DHT22;38038;45.922;13.604;2022-07-21T15:13:03;35.80;52.80
52024;DHT22;38038;45.922;13.604;2022-07-21T15:15:29;35.70;52.80
52024;DHT22;38038;45.922;13.604;2022-07-21T15:17:54;35.70;53.00
52024;DHT22;38038;45.922;13.604;2022-07-21T15:20:20;35.80;53.20
52024;DHT22;38038;45.922;13.604;2022-07-21T15:22:46;35.80;53.30
52024;DHT22;38038;45.922;13.604;2022-07-21T15:25:12;35.90;53.50
52024;DHT22;38038;45.922;13.604;2022-07-21T15:27:39;35.80;53.20
52024;DHT22;38038;45.922;13.604;2022-07-21T15:30:10;35.80;53.60
52024;DHT22;38038;45.922;13.604;2022-07-21T15:32:36;35.70;58.60
52024;DHT22;38038;45.922;13.604;2022-07-21T15:35:02;35.50;60.40
52024;DHT22;38038;45.922;13.604;2022-07-21T15:37:28;35.20;63.40
52024;DHT22;38038;45.922;13.604;2022-07-21T15:39:54;35.10;64.10
52024;DHT22;38038;45.922;13.604;2022-07-21T15:42:20;34.90;65.30
52024;DHT22;38038;45.922;13.604;2022-07-21T15:44:45;34.60;66.60
52024;DHT22;38038;45.922;13.604;2022-07-21T15:47:11;34.50;66.90
52024;DHT22;38038;45.922;13.604;2022-07-21T15:49:37;34.30;67.70
52024;DHT22;38038;45.922;13.604;2022-07-21T15:52:03;34.00;68.20
52024;DHT22;38038;45.922;13.604;2022-07-21T15:54:30;33.90;69.00
52024;DHT22;38038;45.922;13.604;2022-07-21T15:56:56;33.90;69.40
52024;DHT22;38038;45.922;13.604;2022-07-21T15:59:22;33.70;69.70
52024;DHT22;38038;45.922;13.604;2022-07-21T16:02:02;33.50;70.10
52024;DHT22;38038;45.922;13.604;2022-07-21T16:04:27;33.30;70.60
52024;DHT22;38038;45.922;13.604;2022-07-21T16:06:53;33.20;70.10
52024;DHT22;38038;45.922;13.604;2022-07-21T16:09:19;33.10;70.10
52024;DHT22;38038;45.922;13.604;2022-07-21T16:11:45;32.90;70.50
52024;DHT22;38038;45.922;13.604;2022-07-21T16:14:10;33.00;70.80
52024;DHT22;38038;45.922;13.604;2022-07-21T16:16:36;32.80;71.50
52024;DHT22;38038;45.922;13.604;2022-07-21T16:19:02;32.60;71.20
52024;DHT22;38038;45.922;13.604;2022-07-21T16:21:28;32.60;72.10
52024;DHT22;38038;45.922;13.604;2022-07-21T16:23:54;32.50;72.60
52024;DHT22;38038;45.922;13.604;2022-07-21T16:26:20;32.60;72.10